sensor_id;sensor_type;location;lat;lon;timestamp;temperature;humidity
16964;DHT22;8598;50.508;10.436;2022-10-31T00:01:41;7.60;99.90
16964;DHT22;8598;50.508;10.436;2022-10-31T00:04:07;7.60;99.90
16964;DHT22;8598;50.508;10.436;2022-10-31T00:06:34;7.40;99.90
16964;DHT22;8598;50.508;10.436;2022-10-31T00:09:02;7.50;99.90
16964;DHT22;8598;50.508;10.436;2022-10-31T00:11:30;7.40;99.90
16964;DHT22;8598;50.508;10.436;2022-10-31T00:13:57;7.40;99.90
16964;DHT22;8598;50.508;10.436;2022-10-31T00:16:25;7.40;99.90
16964;DHT22;8598;50.508;10.436;2022-10-31T00:18:54;7.50;99.90
16964;DHT22;8598;50.508;10.436;2022-10-31T00:21:22;7.60;99.90
16964;DHT22;8598;50.508;10.436;2022-10-31T00:23:48;7.60;99.90
16964;DHT22;8598;50.508;10.436;2022-10-31T00:26:16;7.60;99.90
16964;DHT22;8598;50.508;10.436;2022-10-31T00:28:43;7.60;99.90
16964;DHT22;8598;50.508;10.436;2022-10-31T00:31:11;7.60;99.90
16964;DHT22;8598;50.508;10.436;2022-10-31T00:33:39;7.60;99.90
16964;DHT22;8598;50.508;10.436;2022-10-31T00:36:14;7.60;99.90
16964;DHT22;8598;50.508;10.436;2022-10-31T00:38:42;7.60;99.90
16964;DHT22;8598;50.508;10.436;2022-10-31T00:41:09;7.60;99.90
16964;DHT22;8598;50.508;10.436;2022-10-31T00:43:36;7.60;99.90
16964;DHT22;8598;50.508;10.436;2022-10-31T00:46:03;7.70;99.90
16964;DHT22;8598;50.508;10.436;2022-10-31T00:48:30;7.70;99.90
16964;DHT22;8598;50.508;10.436;2022-10-31T00:50:57;7.80;99.90
16964;DHT22;8598;50.508;10.436;2022-10-31T00:53:25;7.90;99.90
16964;DHT22;8598;50.508;10.436;2022-10-31T00:55:52;7.90;99.90
16964;DHT22;8598;50.508;10.436;2022-10-31T00:58:18;7.90;99.90
16964;DHT22;8598;50.508;10.436;2022-10-31T01:00:47;8.00;99.90
16964;DHT22;8598;50.508;10.436;2022-10-31T01:03:20;8.00;99.90
16964;DHT22;8598;50.508;10.436;2022-10-31T01:05:55;8.00;99.90
16964;DHT22;8598;50.508;10.436;2022-10-31T01:08:22;8.10;99.90
16964;DHT22;8598;50.508;10.436;2022-10-31T01:11:04;8.10;99.90
16964;DHT22;8598;50.508;10.436;2022-10-31T01:13:31;8.10;99.90
16964;DHT22;8598;50.508;10.436;2022-10-31T01:15:58;8.00;99.90
16964;DHT22;8598;50.508;10.436;2022-10-31T01:18:26;8.00;99.90
16964;DHT22;8598;50.508;10.436;2022-10-31T01:21:00;8.00;99.90
16964;DHT22;8598;50.508;10.436;2022-10-31T01:23:28;8.00;99.90
16964;DHT22;8598;50.508;10.436;2022-10-31T01:26:05;8.00;99.90
16964;DHT22;8598;50.508;10.436;2022-10-31T01:28:33;8.00;99.90
16964;DHT22;8598;50.508;10.436;2022-10-31T01:31:01;8.00;99.90
16964;DHT22;8598;50.508;10.436;2022-10-31T01:33:28;8.00;99.90
16964;DHT22;8598;50.508;10.436;2022-10-31T01:35:54;8.00;99.90
16964;DHT22;8598;50.508;10.436;2022-10-31T01:38:21;7.90;99.90
16964;DHT22;8598;50.508;10.436;2022-10-31T01:40:48;8.00;99.90
16964;DHT22;8598;50.508;10.436;2022-10-31T01:43:17;7.90;99.90
16964;DHT22;8598;50.508;10.436;2022-10-31T01:45:47;7.90;99.90
16964;DHT22;8598;50.508;10.436;2022-10-31T01:48:17;7.80;99.90
16964;DHT22;8598;50.508;10.436;2022-10-31T01:50:48;7.70;99.90
16964;DHT22;8598;50.508;10.436;2022-10-31T01:53:17;7.60;99.90
16964;DHT22;8598;50.508;10.436;2022-10-31T01:55:46;7.70;99.90
16964;DHT22;8598;50.508;10.436;2022-10-31T01:58:14;7.70;99.90
16964;DHT22;8598;50.508;10.436;2022-10-31T02:00:46;7.70;99.90
16964;DHT22;8598;50.508;10.436;2022-10-31T02:03:14;7.70;99.90
16964;DHT22;8598;50.508;10.436;2022-10-31T02:05:41;7.70;99.90
16964;DHT22;8598;50.508;10.436;2022-10-31T02:08:13;7.60;99.90
16964;DHT22;8598;50.508;10.436;2022-10-31T02:10:43;7.60;99.90
16964;DHT22;8598;50.508;10.436;2022-10-31T02:13:10;7.50;99.90
16964;DHT22;8598;50.508;10.436;2022-10-31T02:15:39;7.50;99.90
16964;DHT22;8598;50.508;10.436;2022-10-31T02:18:08;7.50;99.90
16964;DHT22;8598;50.508;10.436;2022-10-31T02:20:42;7.40;99.90
16964;DHT22;8598;50.508;10.436;2022-10-31T02:23:37;7.40;99.90
16964;DHT22;8598;50.508;10.436;2022-10-31T02:26:22;7.40;99.90
16964;DHT22;8598;50.508;10.436;2022-10-31T02:29:06;7.50;99.90
16964;DHT22;8598;50.508;10.436;2022-10-31T02:31:41;7.40;99.90
16964;DHT22;8598;50.508;10.436;2022-10-31T02:34:15;7.40;99.90
16964;DHT22;8598;50.508;10.436;2022-10-31T02:36:51;7.40;99.90
16964;DHT22;8598;50.508;10.436;2022-10-31T02:39:24;7.40;99.90
16964;DHT22;8598;50.508;10.436;2022-10-31T02:41:58;7.50;99.90
16964;DHT22;8598;50.508;10.436;2022-10-31T02:44:29;7.50;99.90
16964;DHT22;8598;50.508;10.436;2022-10-31T02:47:04;7.60;99.90
16964;DHT22;8598;50.508;10.436;2022-10-31T02:49:35;7.60;99.90
16964;DHT22;8598;50.508;10.436;2022-10-31T02:52:13;7.70;99.90
16964;DHT22;8598;50.508;10.436;2022-10-31T02:54:40;7.60;99.90
16964;DHT22;8598;50.508;10.436;2022-10-31T02:57:08;7.60;99.90
16964;DHT22;8598;50.508;10.436;2022-10-31T02:59:38;7.60;99.90
16964;DHT22;8598;50.508;10.436;2022-10-31T03:02:27;7.60;99.90
16964;DHT22;8598;50.508;10.436;2022-10-31T03:05:10;7.60;99.90
16964;DHT22;8598;50.508;10.436;2022-10-31T03:07:42;7.60;99.90
16964;DHT22;8598;50.508;10.436;2022-10-31T03:10:18;7.60;99.90
16964;DHT22;8598;50.508;10.436;2022-10-31T03:12:51;7.60;99.90
16964;DHT22;8598;50.508;10.436;2022-10-31T03:15:22;7.50;99.90
16964;DHT22;8598;50.508;10.436;2022-10-31T03:17:56;7.60;99.90
16964;DHT22;8598;50.508;10.436;2022-10-31T03:20:33;7.60;99.90
16964;DHT22;8598;50.508;10.436;2022-10-31T03:23:02;7.60;99.90
16964;DHT22;8598;50.508;10.436;2022-10-31T03:25:30;7.50;99.90
16964;DHT22;8598;50.508;10.436;2022-10-31T03:27:59;7.60;99.90
16964;DHT22;8598;50.508;10.436;2022-10-31T03:30:28;7.50;99.90
16964;DHT22;8598;50.508;10.436;2022-10-31T03:32:57;7.60;99.90
16964;DHT22;8598;50.508;10.436;2022-10-31T03:35:27;7.60;99.90
16964;DHT22;8598;50.508;10.436;2022-10-31T03:37:55;7.50;99.90
16964;DHT22;8598;50.508;10.436;2022-10-31T03:40:25;7.50;99.90
16964;DHT22;8598;50.508;10.436;2022-10-31T03:42:56;7.50;99.90
16964;DHT22;8598;50.508;10.436;2022-10-31T03:45:25;7.50;99.90
16964;DHT22;8598;50.508;10.436;2022-10-31T03:47:53;7.50;99.90
16964;DHT22;8598;50.508;10.436;2022-10-31T03:50:24;7.50;99.90
16964;DHT22;8598;50.508;10.436;2022-10-31T03:52:55;7.40;99.90
16964;DHT22;8598;50.508;10.436;2022-10-31T03:55:28;7.40;99.90
16964;DHT22;8598;50.508;10.436;2022-10-31T03:57:59;7.30;99.90
16964;DHT22;8598;50.508;10.436;2022-10-31T04:00:26;7.40;99.90
16964;DHT22;8598;50.508;10.436;2022-10-31T04:03:00;7.30;99.90
16964;DHT22;8598;50.508;10.436;2022-10-31T04:05:29;7.30;99.90
16964;DHT22;8598;50.508;10.436;2022-10-31T04:07:58;7.30;99.90
16964;DHT22;8598;50.508;10.436;2022-10-31T04:10:26;7.20;99.90
16964;DHT22;8598;50.508;10.436;2022-10-31T04:12:57;7.20;99.90
16964;DHT22;8598;50.508;10.436;2022-10-31T04:15:25;7.20;99.90
16964;DHT22;8598;50.508;10.436;2022-10-31T04:17:56;7.20;99.90
16964;DHT22;8598;50.508;10.436;2022-10-31T04:20:32;7.20;99.90
16964;DHT22;8598;50.508;10.436;2022-10-31T04:22:59;7.10;99.90
16964;DHT22;8598;50.508;10.436;2022-10-31T04:25:26;7.20;99.90
16964;DHT22;8598;50.508;10.436;2022-10-31T04:27:53;7.20;99.90
16964;DHT22;8598;50.508;10.436;2022-10-31T04:30:19;7.10;99.90
16964;DHT22;8598;50.508;10.436;2022-10-31T04:32:46;7.10;99.90
16964;DHT22;8598;50.508;10.436;2022-10-31T04:35:13;7.10;99.90
16964;DHT22;8598;50.508;10.436;2022-10-31T04:37:41;7.10;99.90
16964;DHT22;8598;50.508;10.436;2022-10-31T04:40:09;7.10;99.90
16964;DHT22;8598;50.508;10.436;2022-10-31T04:42:36;7.00;99.90
16964;DHT22;8598;50.508;10.436;2022-10-31T04:45:03;7.10;99.90
16964;DHT22;8598;50.508;10.436;2022-10-31T04:47:31;7.00;99.90
16964;DHT22;8598;50.508;10.436;2022-10-31T04:49:58;7.00;99.90
16964;DHT22;8598;50.508;10.436;2022-10-31T04:52:25;6.90;99.90
16964;DHT22;8598;50.508;10.436;2022-10-31T04:54:53;6.90;99.90
16964;DHT22;8598;50.508;10.436;2022-10-31T04:57:20;6.80;99.90
16964;DHT22;8598;50.508;10.436;2022-10-31T04:59:47;6.80;99.90
16964;DHT22;8598;50.508;10.436;2022-10-31T05:02:13;6.70;99.90
16964;DHT22;8598;50.508;10.436;2022-10-31T05:04:40;6.70;99.90
16964;DHT22;8598;50.508;10.436;2022-10-31T05:07:07;6.70;99.90
16964;DHT22;8598;50.508;10.436;2022-10-31T05:09:33;6.70;99.90
16964;DHT22;8598;50.508;10.436;2022-10-31T05:12:02;6.70;99.90
16964;DHT22;8598;50.508;10.436;2022-10-31T05:14:28;6.70;99.90
16964;DHT22;8598;50.508;10.436;2022-10-31T05:16:55;6.70;99.90
16964;DHT22;8598;50.508;10.436;2022-10-31T05:19:22;6.70;99.90
16964;DHT22;8598;50.508;10.436;2022-10-31T05:21:49;6.70;99.90
16964;DHT22;8598;50.508;10.436;2022-10-31T05:24:15;6.70;99.90
16964;DHT22;8598;50.508;10.436;2022-10-31T05:26:42;6.80;99.90
16964;DHT22;8598;50.508;10.436;2022-10-31T05:29:10;6.70;99.90
16964;DHT22;8598;50.508;10.436;2022-10-31T05:31:37;6.70;99.90
16964;DHT22;8598;50.508;10.436;2022-10-31T05:34:03;6.70;99.90
16964;DHT22;8598;50.508;10.436;2022-10-31T05:36:30;6.70;99.90
16964;DHT22;8598;50.508;10.436;2022-10-31T05:38:57;6.70;99.90
16964;DHT22;8598;50.508;10.436;2022-10-31T05:41:24;6.80;99.90
16964;DHT22;8598;50.508;10.436;2022-10-31T05:43:50;6.80;99.90
16964;DHT22;8598;50.508;10.436;2022-10-31T05:46:18;6.80;99.90
16964;DHT22;8598;50.508;10.436;2022-10-31T05:48:45;6.70;99.90
16964;DHT22;8598;50.508;10.436;2022-10-31T05:51:12;6.80;99.90
16964;DHT22;8598;50.508;10.436;2022-10-31T05:53:39;6.80;99.90
16964;DHT22;8598;50.508;10.436;2022-10-31T05:56:06;6.80;99.90
16964;DHT22;8598;50.508;10.436;2022-10-31T05:58:33;6.80;99.90
16964;DHT22;8598;50.508;10.436;2022-10-31T06:00:59;6.80;99.90
16964;DHT22;8598;50.508;10.436;2022-10-31T06:03:27;6.70;99.90
16964;DHT22;8598;50.508;10.436;2022-10-31T06:05:54;6.80;99.90
16964;DHT22;8598;50.508;10.436;2022-10-31T06:08:21;6.70;99.90
16964;DHT22;8598;50.508;10.436;2022-10-31T06:10:48;6.80;99.90
16964;DHT22;8598;50.508;10.436;2022-10-31T06:13:14;6.70;99.90
16964;DHT22;8598;50.508;10.436;2022-10-31T06:15:41;6.70;99.90
16964;DHT22;8598;50.508;10.436;2022-10-31T06:18:08;6.70;99.90
16964;DHT22;8598;50.508;10.436;2022-10-31T06:20:36;6.70;99.90
16964;DHT22;8598;50.508;10.436;2022-10-31T06:23:03;6.70;99.90
16964;DHT22;8598;50.508;10.436;2022-10-31T06:25:30;6.70;99.90
16964;DHT22;8598;50.508;10.436;2022-10-31T06:27:58;6.70;99.90
16964;DHT22;8598;50.508;10.436;2022-10-31T06:30:25;6.80;99.90
16964;DHT22;8598;50.508;10.436;2022-10-31T06:32:51;6.90;99.90
16964;DHT22;8598;50.508;10.436;2022-10-31T06:35:18;6.90;99.90
16964;DHT22;8598;50.508;10.436;2022-10-31T06:37:52;6.80;99.90
16964;DHT22;8598;50.508;10.436;2022-10-31T06:40:19;6.80;99.90
16964;DHT22;8598;50.508;10.436;2022-10-31T06:42:45;6.80;99.90
16964;DHT22;8598;50.508;10.436;2022-10-31T06:45:12;6.90;99.90
16964;DHT22;8598;50.508;10.436;2022-10-31T06:47:39;7.00;99.90
16964;DHT22;8598;50.508;10.436;2022-10-31T06:50:06;6.90;99.90
16964;DHT22;8598;50.508;10.436;2022-10-31T06:52:33;7.00;99.90
16964;DHT22;8598;50.508;10.436;2022-10-31T06:55:01;6.90;99.90
16964;DHT22;8598;50.508;10.436;2022-10-31T06:57:28;7.00;99.90
16964;DHT22;8598;50.508;10.436;2022-10-31T06:59:55;7.20;99.90
16964;DHT22;8598;50.508;10.436;2022-10-31T07:02:22;7.10;99.90
16964;DHT22;8598;50.508;10.436;2022-10-31T07:04:48;7.00;99.90
16964;DHT22;8598;50.508;10.436;2022-10-31T07:07:15;7.10;99.90
16964;DHT22;8598;50.508;10.436;2022-10-31T07:09:42;7.00;99.90
16964;DHT22;8598;50.508;10.436;2022-10-31T07:12:10;7.00;99.90
16964;DHT22;8598;50.508;10.436;2022-10-31T07:14:36;7.20;99.90
16964;DHT22;8598;50.508;10.436;2022-10-31T07:17:03;7.10;99.90
16964;DHT22;8598;50.508;10.436;2022-10-31T07:19:30;7.20;99.90
16964;DHT22;8598;50.508;10.436;2022-10-31T07:21:57;7.20;99.90
16964;DHT22;8598;50.508;10.436;2022-10-31T07:24:23;7.30;99.90
16964;DHT22;8598;50.508;10.436;2022-10-31T07:26:53;7.30;99.90
16964;DHT22;8598;50.508;10.436;2022-10-31T07:29:21;7.40;99.90
16964;DHT22;8598;50.508;10.436;2022-10-31T07:31:48;7.50;99.90
16964;DHT22;8598;50.508;10.436;2022-10-31T07:34:15;7.50;99.90
16964;DHT22;8598;50.508;10.436;2022-10-31T07:36:41;7.60;99.90
16964;DHT22;8598;50.508;10.436;2022-10-31T07:39:08;7.60;99.90
16964;DHT22;8598;50.508;10.436;2022-10-31T07:41:35;7.60;99.90
16964;DHT22;8598;50.508;10.436;2022-10-31T07:44:02;7.80;99.90
16964;DHT22;8598;50.508;10.436;2022-10-31T07:46:30;8.10;99.90
16964;DHT22;8598;50.508;10.436;2022-10-31T07:48:56;7.80;99.90
16964;DHT22;8598;50.508;10.436;2022-10-31T07:51:23;7.50;99.90
16964;DHT22;8598;50.508;10.436;2022-10-31T07:53:50;7.80;99.90
16964;DHT22;8598;50.508;10.436;2022-10-31T07:56:17;7.70;99.90
16964;DHT22;8598;50.508;10.436;2022-10-31T07:58:43;7.70;99.90
16964;DHT22;8598;50.508;10.436;2022-10-31T08:01:10;7.70;99.90
16964;DHT22;8598;50.508;10.436;2022-10-31T08:03:38;7.80;99.90
16964;DHT22;8598;50.508;10.436;2022-10-31T08:06:05;8.00;99.90
16964;DHT22;8598;50.508;10.436;2022-10-31T08:08:32;8.20;99.90
16964;DHT22;8598;50.508;10.436;2022-10-31T08:10:59;8.20;99.90
16964;DHT22;8598;50.508;10.436;2022-10-31T08:13:25;8.20;99.90
16964;DHT22;8598;50.508;10.436;2022-10-31T08:15:52;8.30;99.90
16964;DHT22;8598;50.508;10.436;2022-10-31T08:18:19;8.20;99.90
16964;DHT22;8598;50.508;10.436;2022-10-31T08:20:50;8.20;99.90
16964;DHT22;8598;50.508;10.436;2022-10-31T08:23:17;8.40;99.90
16964;DHT22;8598;50.508;10.436;2022-10-31T08:25:43;8.60;99.90
16964;DHT22;8598;50.508;10.436;2022-10-31T08:28:12;8.50;99.90
16964;DHT22;8598;50.508;10.436;2022-10-31T08:30:39;8.70;99.90
16964;DHT22;8598;50.508;10.436;2022-10-31T08:33:10;8.90;99.90
16964;DHT22;8598;50.508;10.436;2022-10-31T08:35:37;8.90;99.90
16964;DHT22;8598;50.508;10.436;2022-10-31T08:38:05;9.10;99.90
16964;DHT22;8598;50.508;10.436;2022-10-31T08:40:33;9.20;99.90
16964;DHT22;8598;50.508;10.436;2022-10-31T08:43:02;9.30;99.90
16964;DHT22;8598;50.508;10.436;2022-10-31T08:45:30;9.40;99.90
16964;DHT22;8598;50.508;10.436;2022-10-31T08:47:58;9.30;99.90
16964;DHT22;8598;50.508;10.436;2022-10-31T08:50:25;9.40;99.90
16964;DHT22;8598;50.508;10.436;2022-10-31T08:52:52;9.50;99.90
16964;DHT22;8598;50.508;10.436;2022-10-31T08:55:21;9.60;99.90
16964;DHT22;8598;50.508;10.436;2022-10-31T08:57:47;9.70;99.90
16964;DHT22;8598;50.508;10.436;2022-10-31T09:00:14;9.60;99.90
16964;DHT22;8598;50.508;10.436;2022-10-31T09:02:41;9.50;99.90
16964;DHT22;8598;50.508;10.436;2022-10-31T09:05:08;9.70;99.90
16964;DHT22;8598;50.508;10.436;2022-10-31T09:07:35;9.80;99.90
16964;DHT22;8598;50.508;10.436;2022-10-31T09:10:02;9.70;99.90
16964;DHT22;8598;50.508;10.436;2022-10-31T09:12:30;9.80;99.90
16964;DHT22;8598;50.508;10.436;2022-10-31T09:14:57;9.50;99.90
16964;DHT22;8598;50.508;10.436;2022-10-31T09:17:26;9.70;99.90
16964;DHT22;8598;50.508;10.436;2022-10-31T09:19:54;9.90;99.90
16964;DHT22;8598;50.508;10.436;2022-10-31T09:22:21;10.20;99.90
16964;DHT22;8598;50.508;10.436;2022-10-31T09:24:48;10.50;99.90
16964;DHT22;8598;50.508;10.436;2022-10-31T09:27:14;10.70;99.90
16964;DHT22;8598;50.508;10.436;2022-10-31T09:29:42;10.90;99.90
16964;DHT22;8598;50.508;10.436;2022-10-31T09:32:09;10.90;99.90
16964;DHT22;8598;50.508;10.436;2022-10-31T09:34:36;11.00;99.90
16964;DHT22;8598;50.508;10.436;2022-10-31T09:37:03;10.70;99.90
16964;DHT22;8598;50.508;10.436;2022-10-31T09:39:29;10.90;99.90
16964;DHT22;8598;50.508;10.436;2022-10-31T09:42:09;11.00;99.90
16964;DHT22;8598;50.508;10.436;2022-10-31T09:44:48;11.10;99.90
16964;DHT22;8598;50.508;10.436;2022-10-31T09:47:24;11.20;99.90
16964;DHT22;8598;50.508;10.436;2022-10-31T09:50:12;11.20;99.90
16964;DHT22;8598;50.508;10.436;2022-10-31T09:52:43;11.40;99.90
16964;DHT22;8598;50.508;10.436;2022-10-31T09:55:15;11.60;99.90
16964;DHT22;8598;50.508;10.436;2022-10-31T09:57:44;12.00;99.90
16964;DHT22;8598;50.508;10.436;2022-10-31T10:00:19;11.90;99.90
16964;DHT22;8598;50.508;10.436;2022-10-31T10:02:49;12.10;99.90
16964;DHT22;8598;50.508;10.436;2022-10-31T10:05:20;12.30;99.90
16964;DHT22;8598;50.508;10.436;2022-10-31T10:07:54;12.40;99.90
16964;DHT22;8598;50.508;10.436;2022-10-31T10:10:26;12.50;99.90
16964;DHT22;8598;50.508;10.436;2022-10-31T10:13:06;12.30;99.90
16964;DHT22;8598;50.508;10.436;2022-10-31T10:15:56;12.60;99.90
16964;DHT22;8598;50.508;10.436;2022-10-31T10:18:32;12.70;99.90
16964;DHT22;8598;50.508;10.436;2022-10-31T10:21:15;12.90;99.90
16964;DHT22;8598;50.508;10.436;2022-10-31T10:23:55;13.00;99.90
16964;DHT22;8598;50.508;10.436;2022-10-31T10:26:28;13.10;99.90
16964;DHT22;8598;50.508;10.436;2022-10-31T10:28:58;13.10;99.90
16964;DHT22;8598;50.508;10.436;2022-10-31T10:31:32;13.20;99.90
16964;DHT22;8598;50.508;10.436;2022-10-31T10:34:06;13.40;99.90
16964;DHT22;8598;50.508;10.436;2022-10-31T10:36:38;13.40;99.90
16964;DHT22;8598;50.508;10.436;2022-10-31T10:39:12;13.60;99.90
16964;DHT22;8598;50.508;10.436;2022-10-31T10:41:45;13.70;99.90
16964;DHT22;8598;50.508;10.436;2022-10-31T10:44:27;13.90;99.90
16964;DHT22;8598;50.508;10.436;2022-10-31T10:47:13;14.00;99.90
16964;DHT22;8598;50.508;10.436;2022-10-31T10:49:58;14.10;99.90
16964;DHT22;8598;50.508;10.436;2022-10-31T10:52:31;14.20;99.90
16964;DHT22;8598;50.508;10.436;2022-10-31T10:55:08;14.40;99.90
16964;DHT22;8598;50.508;10.436;2022-10-31T10:57:51;14.40;99.90
16964;DHT22;8598;50.508;10.436;2022-10-31T11:00:21;14.50;99.90
16964;DHT22;8598;50.508;10.436;2022-10-31T11:02:50;14.50;99.90
16964;DHT22;8598;50.508;10.436;2022-10-31T11:05:28;14.60;99.90
16964;DHT22;8598;50.508;10.436;2022-10-31T11:07:55;14.80;99.90
16964;DHT22;8598;50.508;10.436;2022-10-31T11:10:22;14.80;99.90
16964;DHT22;8598;50.508;10.436;2022-10-31T11:13:04;14.90;99.90
16964;DHT22;8598;50.508;10.436;2022-10-31T11:15:35;14.80;99.90
16964;DHT22;8598;50.508;10.436;2022-10-31T11:18:04;14.90;99.90
16964;DHT22;8598;50.508;10.436;2022-10-31T11:20:33;15.00;99.90
16964;DHT22;8598;50.508;10.436;2022-10-31T11:23:15;15.00;99.90
16964;DHT22;8598;50.508;10.436;2022-10-31T11:25:49;15.00;99.90
16964;DHT22;8598;50.508;10.436;2022-10-31T11:28:16;15.10;99.90
16964;DHT22;8598;50.508;10.436;2022-10-31T11:30:45;15.10;99.90
16964;DHT22;8598;50.508;10.436;2022-10-31T11:33:19;15.20;99.90
16964;DHT22;8598;50.508;10.436;2022-10-31T11:35:47;15.30;99.90
16964;DHT22;8598;50.508;10.436;2022-10-31T11:38:18;15.40;99.90
16964;DHT22;8598;50.508;10.436;2022-10-31T11:40:53;15.50;99.90
16964;DHT22;8598;50.508;10.436;2022-10-31T11:43:21;15.80;99.90
16964;DHT22;8598;50.508;10.436;2022-10-31T11:45:48;15.90;99.90
16964;DHT22;8598;50.508;10.436;2022-10-31T11:48:19;15.90;99.90
16964;DHT22;8598;50.508;10.436;2022-10-31T11:50:51;16.00;99.90
16964;DHT22;8598;50.508;10.436;2022-10-31T11:53:22;16.10;99.90
16964;DHT22;8598;50.508;10.436;2022-10-31T11:56:02;16.20;99.90
16964;DHT22;8598;50.508;10.436;2022-10-31T11:58:29;16.40;99.90
16964;DHT22;8598;50.508;10.436;2022-10-31T12:00:57;16.30;99.90
16964;DHT22;8598;50.508;10.436;2022-10-31T12:03:38;16.50;99.90
16964;DHT22;8598;50.508;10.436;2022-10-31T12:06:13;16.40;99.90
16964;DHT22;8598;50.508;10.436;2022-10-31T12:08:43;16.40;99.90
16964;DHT22;8598;50.508;10.436;2022-10-31T12:11:21;16.30;99.90
16964;DHT22;8598;50.508;10.436;2022-10-31T12:14:00;16.30;99.90
16964;DHT22;8598;50.508;10.436;2022-10-31T12:16:33;16.40;99.90
16964;DHT22;8598;50.508;10.436;2022-10-31T12:19:06;16.60;99.90
16964;DHT22;8598;50.508;10.436;2022-10-31T12:22:02;16.70;99.90
16964;DHT22;8598;50.508;10.436;2022-10-31T12:24:38;16.80;99.90
16964;DHT22;8598;50.508;10.436;2022-10-31T12:27:16;16.80;99.90
16964;DHT22;8598;50.508;10.436;2022-10-31T12:30:01;16.80;99.90
16964;DHT22;8598;50.508;10.436;2022-10-31T12:32:35;16.80;99.90
16964;DHT22;8598;50.508;10.436;2022-10-31T12:35:23;17.00;99.90
16964;DHT22;8598;50.508;10.436;2022-10-31T12:38:11;17.00;99.90
16964;DHT22;8598;50.508;10.436;2022-10-31T12:40:55;17.10;99.90
16964;DHT22;8598;50.508;10.436;2022-10-31T12:43:34;17.00;99.90
16964;DHT22;8598;50.508;10.436;2022-10-31T12:46:04;17.00;99.90
16964;DHT22;8598;50.508;10.436;2022-10-31T12:48:52;17.00;99.90
16964;DHT22;8598;50.508;10.436;2022-10-31T12:51:31;16.90;99.90
16964;DHT22;8598;50.508;10.436;2022-10-31T12:54:20;17.00;99.90
16964;DHT22;8598;50.508;10.436;2022-10-31T12:56:56;17.10;99.90
16964;DHT22;8598;50.508;10.436;2022-10-31T12:59:30;17.10;99.90
16964;DHT22;8598;50.508;10.436;2022-10-31T13:02:02;17.20;99.90
16964;DHT22;8598;50.508;10.436;2022-10-31T13:04:42;17.10;99.90
16964;DHT22;8598;50.508;10.436;2022-10-31T13:07:18;17.10;99.90
16964;DHT22;8598;50.508;10.436;2022-10-31T13:09:52;17.10;99.90
16964;DHT22;8598;50.508;10.436;2022-10-31T13:12:21;17.10;99.90
16964;DHT22;8598;50.508;10.436;2022-10-31T13:14:50;17.10;99.90
16964;DHT22;8598;50.508;10.436;2022-10-31T13:17:24;17.10;99.90
16964;DHT22;8598;50.508;10.436;2022-10-31T13:19:55;17.00;99.90
16964;DHT22;8598;50.508;10.436;2022-10-31T13:22:30;17.10;99.90
16964;DHT22;8598;50.508;10.436;2022-10-31T13:25:09;17.10;99.90
16964;DHT22;8598;50.508;10.436;2022-10-31T13:27:44;17.00;99.90
16964;DHT22;8598;50.508;10.436;2022-10-31T13:30:15;17.00;99.90
16964;DHT22;8598;50.508;10.436;2022-10-31T13:32:44;17.00;99.90
16964;DHT22;8598;50.508;10.436;2022-10-31T13:35:16;17.00;99.90
16964;DHT22;8598;50.508;10.436;2022-10-31T13:37:50;17.10;99.90
16964;DHT22;8598;50.508;10.436;2022-10-31T13:40:27;17.10;99.90
16964;DHT22;8598;50.508;10.436;2022-10-31T13:42:59;17.10;99.90
16964;DHT22;8598;50.508;10.436;2022-10-31T13:45:28;17.00;99.90
16964;DHT22;8598;50.508;10.436;2022-10-31T13:47:58;17.00;99.90
16964;DHT22;8598;50.508;10.436;2022-10-31T13:50:26;17.00;99.90
16964;DHT22;8598;50.508;10.436;2022-10-31T13:53:10;17.10;99.90
16964;DHT22;8598;50.508;10.436;2022-10-31T13:55:43;16.90;99.90
16964;DHT22;8598;50.508;10.436;2022-10-31T13:58:24;16.80;99.90
16964;DHT22;8598;50.508;10.436;2022-10-31T14:01:05;16.80;99.90
16964;DHT22;8598;50.508;10.436;2022-10-31T14:03:38;16.80;99.90
16964;DHT22;8598;50.508;10.436;2022-10-31T14:06:06;16.70;99.90
16964;DHT22;8598;50.508;10.436;2022-10-31T14:08:37;16.70;99.90
16964;DHT22;8598;50.508;10.436;2022-10-31T14:11:07;16.70;99.90
16964;DHT22;8598;50.508;10.436;2022-10-31T14:13:37;16.80;99.90
16964;DHT22;8598;50.508;10.436;2022-10-31T14:16:18;16.80;99.90
16964;DHT22;8598;50.508;10.436;2022-10-31T14:18:48;16.80;99.90
16964;DHT22;8598;50.508;10.436;2022-10-31T14:21:25;16.80;99.90
16964;DHT22;8598;50.508;10.436;2022-10-31T14:23:55;16.80;99.90
16964;DHT22;8598;50.508;10.436;2022-10-31T14:26:34;16.70;99.90
16964;DHT22;8598;50.508;10.436;2022-10-31T14:29:21;16.70;99.90
16964;DHT22;8598;50.508;10.436;2022-10-31T14:31:54;16.60;99.90
16964;DHT22;8598;50.508;10.436;2022-10-31T14:34:24;16.50;99.90
16964;DHT22;8598;50.508;10.436;2022-10-31T14:37:02;16.40;99.90
16964;DHT22;8598;50.508;10.436;2022-10-31T14:39:37;16.40;99.90
16964;DHT22;8598;50.508;10.436;2022-10-31T14:42:17;16.40;99.90
16964;DHT22;8598;50.508;10.436;2022-10-31T14:45:15;16.30;99.90
16964;DHT22;8598;50.508;10.436;2022-10-31T14:47:51;16.30;99.90
16964;DHT22;8598;50.508;10.436;2022-10-31T14:50:24;16.20;99.90
16964;DHT22;8598;50.508;10.436;2022-10-31T14:52:57;16.10;99.90
16964;DHT22;8598;50.508;10.436;2022-10-31T14:55:28;16.10;99.90
16964;DHT22;8598;50.508;10.436;2022-10-31T14:57:55;16.00;99.90
16964;DHT22;8598;50.508;10.436;2022-10-31T15:00:24;16.00;99.90
16964;DHT22;8598;50.508;10.436;2022-10-31T15:03:00;15.90;99.90
16964;DHT22;8598;50.508;10.436;2022-10-31T15:05:30;15.80;99.90
16964;DHT22;8598;50.508;10.436;2022-10-31T15:07:58;15.70;99.90
16964;DHT22;8598;50.508;10.436;2022-10-31T15:10:28;15.70;99.90
16964;DHT22;8598;50.508;10.436;2022-10-31T15:13:08;15.60;99.90
16964;DHT22;8598;50.508;10.436;2022-10-31T15:15:35;15.50;99.90
16964;DHT22;8598;50.508;10.436;2022-10-31T15:18:05;15.40;99.90
16964;DHT22;8598;50.508;10.436;2022-10-31T15:20:37;15.30;99.90
16964;DHT22;8598;50.508;10.436;2022-10-31T15:23:11;15.30;99.90
16964;DHT22;8598;50.508;10.436;2022-10-31T15:25:42;15.20;99.90
16964;DHT22;8598;50.508;10.436;2022-10-31T15:28:16;15.10;99.90
16964;DHT22;8598;50.508;10.436;2022-10-31T15:30:51;15.00;99.90
16964;DHT22;8598;50.508;10.436;2022-10-31T15:33:23;14.90;99.90
16964;DHT22;8598;50.508;10.436;2022-10-31T15:35:58;14.80;99.90
16964;DHT22;8598;50.508;10.436;2022-10-31T15:38:25;14.80;99.90
16964;DHT22;8598;50.508;10.436;2022-10-31T15:40:58;14.70;99.90
16964;DHT22;8598;50.508;10.436;2022-10-31T15:43:27;14.60;99.90
16964;DHT22;8598;50.508;10.436;2022-10-31T15:45:59;14.50;99.90
16964;DHT22;8598;50.508;10.436;2022-10-31T15:48:26;14.40;99.90
16964;DHT22;8598;50.508;10.436;2022-10-31T15:50:57;14.30;99.90
16964;DHT22;8598;50.508;10.436;2022-10-31T15:53:38;14.30;99.90
16964;DHT22;8598;50.508;10.436;2022-10-31T15:56:12;14.20;99.90
16964;DHT22;8598;50.508;10.436;2022-10-31T15:58:43;14.20;99.90
16964;DHT22;8598;50.508;10.436;2022-10-31T16:01:21;14.10;99.90
16964;DHT22;8598;50.508;10.436;2022-10-31T16:03:58;14.10;99.90